Aviation Digital Data Service (ADDS)

Output produced by METARs form (0324 UTC 21 September 2017)
found at http://www.aviationweather.gov/adds/metars/
 
EIME 210300Z 30007KT 9999 BKN003 11/10 Q1008
TAF EIME 210200Z 2103/2112 30008KT 9999 SCT005 BKN012 
     TEMPO 2103/2104 5000 -RA BKN005 
     BECMG 2105/2108 27008KT FEW017 SCT025
       
TAF EIKN 202300Z 2100/2124 VRB03KT 9999 FEW010 BKN050 
     TEMPO 2108/2119 -SHRA SCT018CB 
     BECMG 2109/2112 22010KT 
     BECMG 2120/2123 17012KT 
       
EICK 210300Z 31010KT 9999 FEW008 SCT060 09/08 Q1011 NOSIG
TAF EICK 202300Z 2100/2124 33010KT 9999 BKN012 
     PROB30 
     TEMPO 2100/2102 4000 -DZ BKN007 
     BECMG 2100/2103 SCT012 
     BECMG 2104/2107 28007KT 
     BECMG 2109/2112 23010KT 
     TEMPO 2110/2118 -SHRA SCT018CB
       
EIDW 210300Z 31008KT 8000 -RA BKN004 BKN040 10/10 Q1008 BECMG SCT004
TAF EIDW 202300Z 2100/2124 33008KT 8000 -RA SCT004 BKN025 
     TEMPO 2100/2104 5000 RA BKN005 
     BECMG 2107/2110 28010KT 
     TEMPO 2114/2118 -SHRA SCT020CB 
     BECMG 2114/2117 22010KT
       
EINN 210300Z 26004KT 9999 FEW018 08/08 Q1011 NOSIG
TAF EINN 202300Z 2100/2124 VRB03KT 9999 FEW008 SCT018 BKN050 
     TEMPO 2106/2118 -SHRA SCT020CB 
     BECMG 2109/2112 24010KT 
     BECMG 2114/2117 21010KT
       
TAF EISG 210200Z 2103/2112 30005KT 9999 FEW020 BKN030
       
TAF EIWF 210200Z 2103/2112 32010KT 9999 FEW007 BKN035 
     BECMG 2108/2111 23010KT